UAL1328 KMEM-KJFK
Flight info
| Callsign | UAL1328 |
|---|---|
| Flight time | 2h 5m |
| Altitude | 41000 |
| Route | GOETZ7 DIYAB DCT HITMN Q34 MAULS DCT QUART DCT HURTS DCT SAWED Q108 SIE CAMRN5 |
| Aircraft | B77L/H-SDE1E2E3FGHIJ2J3J4J5M1RWXY/LB1D1 |
Departure
| Time | 2026-05-04 01:19 |
|---|---|
| Airport | Memphis International Airport (KMEM) |
Arrival
| Time | 2026-05-04 03:24 |
|---|---|
| Airport | John F. Kennedy International Airport (KJFK) |
| Time | Latitude | Longitude | Altitude | Speed | Heading |
|---|---|---|---|---|---|
| 2026-05-04 01:00 | 35.04029 | -89.97991 | 316 ft | 0 kts | 30° |
| 2026-05-04 01:08 | 35.04023 | -89.97995 | 316 ft | 3 kts | 44° |
| 2026-05-04 01:08 | 35.04012 | -89.98016 | 313 ft | 3 kts | 89° |
| 2026-05-04 01:09 | 35.04015 | -89.98035 | 313 ft | 1 kts | 117° |
| 2026-05-04 01:09 | 35.04015 | -89.98036 | 313 ft | 0 kts | 117° |
| 2026-05-04 01:13 | 35.04012 | -89.98026 | 313 ft | 8 kts | 117° |
| 2026-05-04 01:13 | 35.03992 | -89.97923 | 317 ft | 13 kts | 96° |
| 2026-05-04 01:13 | 35.03985 | -89.97808 | 317 ft | 14 kts | 91° |
| 2026-05-04 01:14 | 35.04047 | -89.97739 | 319 ft | 14 kts | 3° |
| 2026-05-04 01:14 | 35.04144 | -89.97740 | 321 ft | 14 kts | 359° |
| 2026-05-04 01:14 | 35.04244 | -89.97742 | 320 ft | 15 kts | 359° |
| 2026-05-04 01:14 | 35.04353 | -89.97744 | 320 ft | 16 kts | 359° |
| 2026-05-04 01:15 | 35.04465 | -89.97747 | 321 ft | 16 kts | 359° |
| 2026-05-04 01:15 | 35.04577 | -89.97749 | 320 ft | 17 kts | 359° |
| 2026-05-04 01:15 | 35.04707 | -89.97753 | 317 ft | 20 kts | 359° |
| 2026-05-04 01:15 | 35.04847 | -89.97756 | 318 ft | 20 kts | 359° |
| 2026-05-04 01:16 | 35.04987 | -89.97759 | 319 ft | 20 kts | 359° |
| 2026-05-04 01:16 | 35.05126 | -89.97762 | 320 ft | 20 kts | 359° |
| 2026-05-04 01:16 | 35.05266 | -89.97766 | 323 ft | 20 kts | 358° |
| 2026-05-04 01:16 | 35.05382 | -89.97778 | 326 ft | 10 kts | 354° |
| 2026-05-04 01:17 | 35.05428 | -89.97755 | 326 ft | 0 kts | 50° |
| 2026-05-04 01:17 | 35.05432 | -89.97749 | 326 ft | 7 kts | 53° |
| 2026-05-04 01:17 | 35.05441 | -89.97665 | 329 ft | 11 kts | 104° |
| 2026-05-04 01:18 | 35.05385 | -89.97618 | 328 ft | 11 kts | 174° |
| 2026-05-04 01:18 | 35.05369 | -89.97617 | 328 ft | 0 kts | 176° |
| 2026-05-04 01:18 | 35.05191 | -89.97610 | 321 ft | 72 kts | 180° |
| 2026-05-04 01:18 | 35.04393 | -89.97595 | 321 ft | 152 kts | 178° |
| 2026-05-04 01:19 | 35.03225 | -89.97553 | 844 ft | 171 kts | 179° |
| 2026-05-04 01:19 | 35.02041 | -89.97513 | 1825 ft | 166 kts | 181° |
| 2026-05-04 01:19 | 35.00902 | -89.97463 | 2853 ft | 165 kts | 182° |
| 2026-05-04 01:19 | 34.99646 | -89.97415 | 3304 ft | 196 kts | 182° |
| 2026-05-04 01:20 | 34.98184 | -89.97195 | 3554 ft | 233 kts | 168° |
| 2026-05-04 01:20 | 34.96546 | -89.96488 | 4074 ft | 261 kts | 162° |
| 2026-05-04 01:20 | 34.94830 | -89.95597 | 4758 ft | 279 kts | 152° |
| 2026-05-04 01:20 | 34.93381 | -89.93947 | 5010 ft | 292 kts | 122° |
| 2026-05-04 01:21 | 34.92807 | -89.91580 | 5006 ft | 291 kts | 91° |
| 2026-05-04 01:21 | 34.92769 | -89.89152 | 5011 ft | 290 kts | 90° |
| 2026-05-04 01:21 | 34.92678 | -89.86682 | 5003 ft | 291 kts | 91° |
| 2026-05-04 01:21 | 34.92688 | -89.84271 | 4986 ft | 283 kts | 76° |
| 2026-05-04 01:22 | 34.93453 | -89.82105 | 5005 ft | 276 kts | 55° |
| 2026-05-04 01:22 | 34.94470 | -89.80079 | 5351 ft | 283 kts | 56° |
| 2026-05-04 01:22 | 34.95475 | -89.77992 | 6503 ft | 283 kts | 57° |
| 2026-05-04 01:22 | 34.96454 | -89.75950 | 7647 ft | 282 kts | 57° |
| 2026-05-04 01:23 | 34.97451 | -89.73860 | 8732 ft | 284 kts | 58° |
| 2026-05-04 01:23 | 34.98442 | -89.71760 | 9815 ft | 287 kts | 58° |
| 2026-05-04 01:23 | 34.99437 | -89.69646 | 10680 ft | 296 kts | 58° |
| 2026-05-04 01:23 | 35.00514 | -89.67361 | 11053 ft | 327 kts | 58° |
| 2026-05-04 01:24 | 35.01713 | -89.64819 | 11298 ft | 361 kts | 58° |
| 2026-05-04 01:24 | 35.03006 | -89.62069 | 11917 ft | 380 kts | 58° |
| 2026-05-04 01:24 | 35.04325 | -89.59253 | 12939 ft | 389 kts | 58° |
| 2026-05-04 01:24 | 35.05681 | -89.56355 | 14077 ft | 395 kts | 58° |
| 2026-05-04 01:25 | 35.07054 | -89.53418 | 15121 ft | 401 kts | 57° |
| 2026-05-04 01:25 | 35.08428 | -89.50479 | 16127 ft | 406 kts | 57° |
| 2026-05-04 01:25 | 35.09847 | -89.47443 | 17123 ft | 413 kts | 57° |
| 2026-05-04 01:25 | 35.11284 | -89.44368 | 18109 ft | 420 kts | 56° |
| 2026-05-04 01:26 | 35.12743 | -89.41242 | 18964 ft | 426 kts | 56° |
| 2026-05-04 01:26 | 35.14226 | -89.38062 | 19795 ft | 433 kts | 56° |
| 2026-05-04 01:26 | 35.15711 | -89.34872 | 20584 ft | 439 kts | 56° |
| 2026-05-04 01:26 | 35.17231 | -89.31603 | 21395 ft | 445 kts | 56° |
| 2026-05-04 01:27 | 35.18782 | -89.28267 | 22196 ft | 452 kts | 56° |
| 2026-05-04 01:27 | 35.20345 | -89.24905 | 22991 ft | 458 kts | 56° |
| 2026-05-04 01:27 | 35.21888 | -89.21446 | 23745 ft | 465 kts | 61° |
| 2026-05-04 01:27 | 35.23002 | -89.17736 | 24272 ft | 477 kts | 70° |
| 2026-05-04 01:28 | 35.23920 | -89.13794 | 24930 ft | 483 kts | 71° |
| 2026-05-04 01:28 | 35.24842 | -89.09811 | 25625 ft | 486 kts | 68° |
| 2026-05-04 01:28 | 35.26023 | -89.05972 | 26227 ft | 488 kts | 62° |
| 2026-05-04 01:28 | 35.27457 | -89.02196 | 26848 ft | 491 kts | 59° |
| 2026-05-04 01:29 | 35.29000 | -88.98434 | 27476 ft | 495 kts | 58° |
| 2026-05-04 01:29 | 35.30572 | -88.94638 | 28083 ft | 500 kts | 58° |
| 2026-05-04 01:29 | 35.32113 | -88.90848 | 28666 ft | 505 kts | 59° |
| 2026-05-04 01:29 | 35.33662 | -88.86935 | 29230 ft | 510 kts | 59° |
| 2026-05-04 01:30 | 35.35172 | -88.83031 | 29773 ft | 515 kts | 59° |
| 2026-05-04 01:30 | 35.36698 | -88.79021 | 30250 ft | 519 kts | 60° |
| 2026-05-04 01:30 | 35.38218 | -88.74985 | 30781 ft | 519 kts | 60° |
| 2026-05-04 01:30 | 35.39725 | -88.70963 | 31432 ft | 517 kts | 59° |
| 2026-05-04 01:31 | 35.41204 | -88.67012 | 32115 ft | 514 kts | 59° |
| 2026-05-04 01:31 | 35.42693 | -88.63038 | 32749 ft | 512 kts | 59° |
| 2026-05-04 01:31 | 35.44187 | -88.59058 | 33128 ft | 515 kts | 59° |
| 2026-05-04 01:32 | 35.47192 | -88.51062 | 33080 ft | 514 kts | 59° |
| 2026-05-04 01:32 | 35.50172 | -88.43099 | 33098 ft | 511 kts | 59° |
| 2026-05-04 01:33 | 35.53131 | -88.35183 | 33091 ft | 511 kts | 59° |
| 2026-05-04 01:33 | 35.56088 | -88.27253 | 33086 ft | 512 kts | 59° |
| 2026-05-04 01:34 | 35.58558 | -88.20611 | 33078 ft | 512 kts | 59° |
| 2026-05-04 01:34 | 35.62006 | -88.11313 | 33083 ft | 514 kts | 59° |
| 2026-05-04 01:34 | 35.63480 | -88.07334 | 33333 ft | 518 kts | 59° |
| 2026-05-04 01:35 | 35.64972 | -88.03297 | 33934 ft | 515 kts | 59° |
| 2026-05-04 01:35 | 35.66446 | -87.99294 | 34547 ft | 511 kts | 59° |
| 2026-05-04 01:35 | 35.67912 | -87.95310 | 35062 ft | 509 kts | 59° |
| 2026-05-04 01:35 | 35.69361 | -87.91374 | 35529 ft | 509 kts | 59° |
| 2026-05-04 01:36 | 35.70832 | -87.87374 | 35954 ft | 509 kts | 59° |
| 2026-05-04 01:36 | 35.72279 | -87.83438 | 36380 ft | 509 kts | 59° |
| 2026-05-04 01:36 | 35.73747 | -87.79440 | 36832 ft | 509 kts | 59° |
| 2026-05-04 01:36 | 35.75193 | -87.75496 | 37209 ft | 510 kts | 59° |
| 2026-05-04 01:37 | 35.76651 | -87.71512 | 37608 ft | 510 kts | 60° |
| 2026-05-04 01:37 | 35.78111 | -87.67516 | 38025 ft | 511 kts | 60° |
| 2026-05-04 01:37 | 35.79571 | -87.63516 | 38407 ft | 511 kts | 60° |
| 2026-05-04 01:37 | 35.81033 | -87.59505 | 38791 ft | 511 kts | 60° |
| 2026-05-04 01:38 | 35.82473 | -87.55548 | 39026 ft | 513 kts | 60° |
| 2026-05-04 01:38 | 35.85418 | -87.47450 | 39086 ft | 517 kts | 60° |
| 2026-05-04 01:39 | 35.88327 | -87.39413 | 39075 ft | 511 kts | 60° |
| 2026-05-04 01:39 | 35.91221 | -87.31399 | 39099 ft | 509 kts | 61° |
| 2026-05-04 01:39 | 35.92658 | -87.27418 | 39219 ft | 508 kts | 61° |
| 2026-05-04 01:40 | 35.94075 | -87.23483 | 39593 ft | 504 kts | 61° |
| 2026-05-04 01:40 | 35.95494 | -87.19538 | 40091 ft | 498 kts | 61° |
| 2026-05-04 01:40 | 35.96895 | -87.15636 | 40578 ft | 492 kts | 61° |
| 2026-05-04 01:40 | 35.98276 | -87.11784 | 41034 ft | 487 kts | 61° |
| 2026-05-04 01:41 | 35.99653 | -87.07951 | 41066 ft | 493 kts | 61° |
| 2026-05-04 01:41 | 36.02455 | -87.00142 | 41072 ft | 505 kts | 62° |
| 2026-05-04 01:42 | 36.05333 | -86.92086 | 41064 ft | 515 kts | 62° |
| 2026-05-04 01:42 | 36.08217 | -86.83974 | 41056 ft | 517 kts | 62° |
| 2026-05-04 01:43 | 36.11100 | -86.75845 | 41075 ft | 519 kts | 62° |
| 2026-05-04 01:43 | 36.13990 | -86.67679 | 41073 ft | 519 kts | 63° |
| 2026-05-04 01:44 | 36.16724 | -86.59439 | 41073 ft | 518 kts | 64° |
| 2026-05-04 01:44 | 36.19371 | -86.51136 | 41070 ft | 517 kts | 65° |
| 2026-05-04 01:45 | 36.22015 | -86.42860 | 41100 ft | 516 kts | 64° |
| 2026-05-04 01:45 | 36.25977 | -86.30545 | 41091 ft | 514 kts | 64° |
| 2026-05-04 01:46 | 36.28625 | -86.22305 | 41095 ft | 514 kts | 64° |
| 2026-05-04 01:46 | 36.31253 | -86.14099 | 41088 ft | 514 kts | 65° |
| 2026-05-04 01:47 | 36.33453 | -86.07209 | 41086 ft | 514 kts | 65° |
| 2026-05-04 01:47 | 36.36508 | -85.97613 | 41091 ft | 516 kts | 65° |
| 2026-05-04 01:48 | 36.38701 | -85.90702 | 41080 ft | 517 kts | 65° |
| 2026-05-04 01:48 | 36.41338 | -85.82373 | 41080 ft | 518 kts | 65° |
| 2026-05-04 01:49 | 36.43967 | -85.74047 | 41101 ft | 519 kts | 65° |
| 2026-05-04 01:49 | 36.46604 | -85.65671 | 41081 ft | 520 kts | 65° |
| 2026-05-04 01:50 | 36.49233 | -85.57292 | 41082 ft | 521 kts | 65° |
| 2026-05-04 01:50 | 36.51853 | -85.48919 | 41082 ft | 522 kts | 65° |
| 2026-05-04 01:51 | 36.54474 | -85.40520 | 41086 ft | 522 kts | 65° |
| 2026-05-04 01:51 | 36.57105 | -85.32065 | 41084 ft | 522 kts | 65° |
| 2026-05-04 01:52 | 36.59710 | -85.23667 | 41085 ft | 522 kts | 65° |
| 2026-05-04 01:52 | 36.62328 | -85.15203 | 41103 ft | 522 kts | 65° |
| 2026-05-04 01:53 | 36.64921 | -85.06790 | 41122 ft | 523 kts | 66° |
| 2026-05-04 01:53 | 36.67530 | -84.98299 | 41098 ft | 524 kts | 66° |
| 2026-05-04 01:54 | 36.70120 | -84.89848 | 41096 ft | 524 kts | 66° |
| 2026-05-04 01:54 | 36.72729 | -84.81307 | 41092 ft | 525 kts | 66° |
| 2026-05-04 01:55 | 36.75308 | -84.72837 | 41094 ft | 525 kts | 66° |
| 2026-05-04 01:55 | 36.77903 | -84.64292 | 41087 ft | 525 kts | 66° |
| 2026-05-04 01:56 | 36.80479 | -84.55786 | 41093 ft | 525 kts | 66° |
| 2026-05-04 01:56 | 36.83061 | -84.47248 | 41073 ft | 526 kts | 66° |
| 2026-05-04 01:57 | 36.85632 | -84.38730 | 41075 ft | 527 kts | 66° |
| 2026-05-04 01:57 | 36.88204 | -84.30181 | 41094 ft | 528 kts | 66° |
| 2026-05-04 01:58 | 36.90792 | -84.21550 | 41084 ft | 529 kts | 66° |
| 2026-05-04 01:58 | 36.93374 | -84.12909 | 41090 ft | 530 kts | 67° |
| 2026-05-04 01:59 | 36.95940 | -84.04298 | 41066 ft | 530 kts | 67° |
| 2026-05-04 01:59 | 36.98496 | -83.95669 | 41067 ft | 531 kts | 67° |
| 2026-05-04 02:00 | 37.01054 | -83.86989 | 41064 ft | 531 kts | 67° |
| 2026-05-04 02:00 | 37.03601 | -83.78316 | 41069 ft | 532 kts | 67° |
| 2026-05-04 02:01 | 37.06142 | -83.69642 | 41077 ft | 532 kts | 67° |
| 2026-05-04 02:01 | 37.08694 | -83.60905 | 41063 ft | 533 kts | 67° |
| 2026-05-04 02:02 | 37.11230 | -83.52196 | 41066 ft | 534 kts | 68° |
| 2026-05-04 02:02 | 37.13763 | -83.43469 | 41058 ft | 534 kts | 68° |
| 2026-05-04 02:03 | 37.16307 | -83.34673 | 41073 ft | 534 kts | 68° |
| 2026-05-04 02:03 | 37.18821 | -83.25954 | 41069 ft | 534 kts | 68° |
| 2026-05-04 02:04 | 37.21353 | -83.17145 | 41065 ft | 535 kts | 68° |
| 2026-05-04 02:04 | 37.23856 | -83.08411 | 41066 ft | 535 kts | 68° |
| 2026-05-04 02:05 | 37.26370 | -82.99607 | 41062 ft | 535 kts | 68° |
| 2026-05-04 02:05 | 37.28872 | -82.90826 | 41077 ft | 536 kts | 68° |
| 2026-05-04 02:06 | 37.31391 | -82.81964 | 41056 ft | 537 kts | 68° |
| 2026-05-04 02:06 | 37.33883 | -82.73163 | 41063 ft | 537 kts | 68° |
| 2026-05-04 02:07 | 37.36383 | -82.64301 | 41061 ft | 538 kts | 68° |
| 2026-05-04 02:07 | 37.38865 | -82.55473 | 41077 ft | 538 kts | 68° |
| 2026-05-04 02:08 | 37.41365 | -82.46555 | 41043 ft | 539 kts | 68° |
| 2026-05-04 02:08 | 37.43850 | -82.37660 | 41044 ft | 539 kts | 69° |
| 2026-05-04 02:09 | 37.46322 | -82.28779 | 41057 ft | 539 kts | 69° |
| 2026-05-04 02:09 | 37.48798 | -82.19854 | 41057 ft | 539 kts | 69° |
| 2026-05-04 02:10 | 37.51261 | -82.10959 | 41050 ft | 539 kts | 69° |
| 2026-05-04 02:10 | 37.53315 | -82.03537 | 41059 ft | 539 kts | 69° |
| 2026-05-04 02:11 | 37.56198 | -81.93091 | 41058 ft | 539 kts | 69° |
| 2026-05-04 02:11 | 37.58644 | -81.84193 | 41051 ft | 539 kts | 69° |
| 2026-05-04 02:12 | 37.61082 | -81.75282 | 41060 ft | 539 kts | 69° |
| 2026-05-04 02:12 | 37.63519 | -81.66298 | 41057 ft | 539 kts | 69° |
| 2026-05-04 02:13 | 37.65932 | -81.57379 | 41099 ft | 539 kts | 69° |
| 2026-05-04 02:13 | 37.68350 | -81.48404 | 41074 ft | 540 kts | 69° |
| 2026-05-04 02:14 | 37.70772 | -81.39390 | 41076 ft | 540 kts | 69° |
| 2026-05-04 02:14 | 37.73179 | -81.30402 | 41088 ft | 540 kts | 69° |
| 2026-05-04 02:15 | 37.75574 | -81.21430 | 41084 ft | 540 kts | 69° |
| 2026-05-04 02:15 | 37.77742 | -81.12352 | 41102 ft | 541 kts | 76° |
| 2026-05-04 02:16 | 37.78765 | -81.02898 | 41100 ft | 542 kts | 85° |
| 2026-05-04 02:16 | 37.79312 | -80.93401 | 41083 ft | 543 kts | 86° |
| 2026-05-04 02:17 | 37.79888 | -80.83908 | 41091 ft | 542 kts | 85° |
| 2026-05-04 02:17 | 37.80510 | -80.74368 | 41095 ft | 543 kts | 85° |
| 2026-05-04 02:18 | 37.81130 | -80.64869 | 41090 ft | 544 kts | 85° |
| 2026-05-04 02:18 | 37.81739 | -80.55332 | 41096 ft | 545 kts | 85° |
| 2026-05-04 02:19 | 37.82342 | -80.45747 | 41081 ft | 545 kts | 85° |
| 2026-05-04 02:19 | 37.82942 | -80.36193 | 41085 ft | 546 kts | 85° |
| 2026-05-04 02:20 | 37.83539 | -80.26647 | 41080 ft | 546 kts | 86° |
| 2026-05-04 02:20 | 37.84131 | -80.17039 | 41086 ft | 546 kts | 86° |
| 2026-05-04 02:21 | 37.84711 | -80.07495 | 41077 ft | 546 kts | 86° |
| 2026-05-04 02:21 | 37.85285 | -79.97912 | 41072 ft | 546 kts | 86° |
| 2026-05-04 02:22 | 37.85851 | -79.88329 | 41066 ft | 547 kts | 86° |
| 2026-05-04 02:22 | 37.86412 | -79.78707 | 41069 ft | 547 kts | 86° |
| 2026-05-04 02:23 | 37.86918 | -79.69104 | 41075 ft | 547 kts | 88° |
| 2026-05-04 02:23 | 37.87203 | -79.59519 | 40982 ft | 547 kts | 89° |
| 2026-05-04 02:24 | 37.87473 | -79.49899 | 40987 ft | 547 kts | 89° |
| 2026-05-04 02:24 | 37.87776 | -79.40244 | 40968 ft | 548 kts | 90° |
| 2026-05-04 02:25 | 37.87311 | -79.30649 | 41005 ft | 544 kts | 101° |
| 2026-05-04 02:25 | 37.85639 | -79.21376 | 41029 ft | 541 kts | 109° |
| 2026-05-04 02:26 | 37.83607 | -79.12253 | 41042 ft | 541 kts | 109° |
| 2026-05-04 02:26 | 37.81574 | -79.03043 | 41029 ft | 542 kts | 109° |
| 2026-05-04 02:27 | 37.79586 | -78.93873 | 41053 ft | 542 kts | 109° |
| 2026-05-04 02:27 | 37.77603 | -78.84702 | 41055 ft | 543 kts | 109° |
| 2026-05-04 02:28 | 37.75605 | -78.75498 | 41049 ft | 543 kts | 109° |
| 2026-05-04 02:28 | 37.73590 | -78.66275 | 41036 ft | 544 kts | 109° |
| 2026-05-04 02:29 | 37.71576 | -78.57098 | 41046 ft | 544 kts | 109° |
| 2026-05-04 02:29 | 37.69544 | -78.47875 | 41050 ft | 545 kts | 109° |
| 2026-05-04 02:30 | 37.67508 | -78.38672 | 41055 ft | 545 kts | 109° |
| 2026-05-04 02:30 | 37.65455 | -78.29429 | 41052 ft | 545 kts | 109° |
| 2026-05-04 02:31 | 37.63408 | -78.20250 | 41057 ft | 545 kts | 109° |
| 2026-05-04 02:31 | 37.61349 | -78.11055 | 41050 ft | 545 kts | 109° |
| 2026-05-04 02:32 | 37.59285 | -78.01873 | 41062 ft | 545 kts | 110° |
| 2026-05-04 02:32 | 37.57202 | -77.92642 | 41071 ft | 545 kts | 110° |
| 2026-05-04 02:33 | 37.55128 | -77.83487 | 41073 ft | 545 kts | 110° |
| 2026-05-04 02:33 | 37.53051 | -77.74286 | 41087 ft | 546 kts | 108° |
| 2026-05-04 02:34 | 37.51864 | -77.66426 | 41091 ft | 551 kts | 98° |
| 2026-05-04 02:34 | 37.51156 | -77.56834 | 41088 ft | 552 kts | 97° |
| 2026-05-04 02:35 | 37.50460 | -77.47171 | 41093 ft | 552 kts | 98° |
| 2026-05-04 02:35 | 37.49699 | -77.37544 | 41087 ft | 552 kts | 98° |
| 2026-05-04 02:36 | 37.48908 | -77.27945 | 41080 ft | 553 kts | 98° |
| 2026-05-04 02:36 | 37.48114 | -77.18362 | 41072 ft | 553 kts | 99° |
| 2026-05-04 02:37 | 37.47310 | -77.08685 | 41088 ft | 553 kts | 99° |
| 2026-05-04 02:37 | 37.46515 | -76.99076 | 41084 ft | 554 kts | 97° |
| 2026-05-04 02:38 | 37.46481 | -76.89384 | 41098 ft | 557 kts | 86° |
| 2026-05-04 02:38 | 37.47216 | -76.79642 | 41111 ft | 557 kts | 85° |
| 2026-05-04 02:39 | 37.47958 | -76.69957 | 41111 ft | 557 kts | 85° |
| 2026-05-04 02:39 | 37.48638 | -76.60212 | 41107 ft | 557 kts | 86° |
| 2026-05-04 02:40 | 37.49281 | -76.50509 | 41097 ft | 557 kts | 86° |
| 2026-05-04 02:40 | 37.49914 | -76.40836 | 41087 ft | 556 kts | 86° |
| 2026-05-04 02:41 | 37.50549 | -76.31093 | 41094 ft | 556 kts | 86° |
| 2026-05-04 02:41 | 37.51174 | -76.21407 | 41103 ft | 556 kts | 87° |
| 2026-05-04 02:42 | 37.51796 | -76.11645 | 41093 ft | 557 kts | 87° |
| 2026-05-04 02:42 | 37.52405 | -76.01950 | 41111 ft | 557 kts | 87° |
| 2026-05-04 02:43 | 37.53251 | -75.92295 | 41097 ft | 557 kts | 73° |
| 2026-05-04 02:43 | 37.54712 | -75.87808 | 41123 ft | 552 kts | 56° |
| 2026-05-04 02:43 | 37.56951 | -75.83890 | 41135 ft | 547 kts | 43° |
| 2026-05-04 02:44 | 37.59764 | -75.80677 | 41115 ft | 539 kts | 27° |
| 2026-05-04 02:44 | 37.62927 | -75.78317 | 41156 ft | 534 kts | 22° |
| 2026-05-04 02:44 | 37.69487 | -75.73666 | 41130 ft | 543 kts | 23° |
| 2026-05-04 02:45 | 37.75978 | -75.68837 | 41108 ft | 542 kts | 24° |
| 2026-05-04 02:45 | 37.82394 | -75.63961 | 41100 ft | 532 kts | 24° |
| 2026-05-04 02:46 | 37.88631 | -75.58901 | 41058 ft | 533 kts | 28° |
| 2026-05-04 02:46 | 37.91690 | -75.56221 | 40808 ft | 534 kts | 28° |
| 2026-05-04 02:46 | 37.94713 | -75.53546 | 40439 ft | 537 kts | 28° |
| 2026-05-04 02:47 | 37.97801 | -75.50828 | 40024 ft | 539 kts | 28° |
| 2026-05-04 02:47 | 38.00890 | -75.48131 | 39799 ft | 538 kts | 27° |
| 2026-05-04 02:47 | 38.03985 | -75.45440 | 39596 ft | 536 kts | 27° |
| 2026-05-04 02:47 | 38.07076 | -75.42782 | 39288 ft | 535 kts | 26° |
| 2026-05-04 02:48 | 38.10184 | -75.40236 | 39088 ft | 537 kts | 25° |
| 2026-05-04 02:48 | 38.13354 | -75.37695 | 39098 ft | 535 kts | 25° |
| 2026-05-04 02:48 | 38.16426 | -75.35209 | 39069 ft | 520 kts | 25° |
| 2026-05-04 02:48 | 38.19435 | -75.32743 | 39061 ft | 505 kts | 25° |
| 2026-05-04 02:49 | 38.22412 | -75.30498 | 39078 ft | 483 kts | 17° |
| 2026-05-04 02:49 | 38.25439 | -75.28812 | 39086 ft | 471 kts | 10° |
| 2026-05-04 02:49 | 38.31636 | -75.26627 | 39088 ft | 455 kts | 359° |
| 2026-05-04 02:50 | 38.37898 | -75.25406 | 39094 ft | 453 kts | 358° |
| 2026-05-04 02:50 | 38.44118 | -75.24170 | 39126 ft | 453 kts | 359° |
| 2026-05-04 02:51 | 38.50320 | -75.22873 | 39090 ft | 452 kts | 359° |
| 2026-05-04 02:51 | 38.56524 | -75.21543 | 39072 ft | 449 kts | 359° |
| 2026-05-04 02:52 | 38.62645 | -75.20234 | 39067 ft | 445 kts | 359° |
| 2026-05-04 02:52 | 38.68706 | -75.18611 | 39066 ft | 456 kts | 9° |
| 2026-05-04 02:53 | 38.74446 | -75.14807 | 39065 ft | 477 kts | 28° |
| 2026-05-04 02:53 | 38.79748 | -75.09575 | 39072 ft | 481 kts | 30° |
| 2026-05-04 02:54 | 38.84994 | -75.04276 | 39114 ft | 483 kts | 30° |
| 2026-05-04 02:54 | 38.90306 | -74.99014 | 39082 ft | 485 kts | 29° |
| 2026-05-04 02:55 | 38.95632 | -74.93772 | 38806 ft | 474 kts | 29° |
| 2026-05-04 02:55 | 38.98239 | -74.91209 | 38164 ft | 476 kts | 29° |
| 2026-05-04 02:55 | 39.00893 | -74.88602 | 37363 ft | 481 kts | 29° |
| 2026-05-04 02:56 | 39.03547 | -74.85985 | 36454 ft | 477 kts | 28° |
| 2026-05-04 02:56 | 39.06138 | -74.83423 | 35530 ft | 474 kts | 28° |
| 2026-05-04 02:56 | 39.08762 | -74.80830 | 34409 ft | 475 kts | 28° |
| 2026-05-04 02:56 | 39.11362 | -74.78222 | 33085 ft | 480 kts | 30° |
| 2026-05-04 02:57 | 39.13942 | -74.75477 | 31902 ft | 479 kts | 31° |
| 2026-05-04 02:57 | 39.16483 | -74.72689 | 30797 ft | 473 kts | 32° |
| 2026-05-04 02:57 | 39.18973 | -74.69940 | 29538 ft | 469 kts | 32° |
| 2026-05-04 02:57 | 39.21422 | -74.67251 | 28035 ft | 466 kts | 32° |
| 2026-05-04 02:58 | 39.23902 | -74.64546 | 26507 ft | 465 kts | 32° |
| 2026-05-04 02:58 | 39.26388 | -74.61847 | 24942 ft | 462 kts | 32° |
| 2026-05-04 02:58 | 39.28814 | -74.59216 | 23345 ft | 460 kts | 32° |
| 2026-05-04 02:58 | 39.31257 | -74.56564 | 21859 ft | 449 kts | 33° |
| 2026-05-04 02:59 | 39.33609 | -74.54003 | 20610 ft | 435 kts | 33° |
| 2026-05-04 02:59 | 39.35896 | -74.51514 | 19430 ft | 424 kts | 34° |
| 2026-05-04 02:59 | 39.38121 | -74.49096 | 18626 ft | 420 kts | 34° |
| 2026-05-04 02:59 | 39.40381 | -74.46641 | 18342 ft | 423 kts | 35° |
| 2026-05-04 03:00 | 39.42619 | -74.44200 | 18144 ft | 418 kts | 35° |
| 2026-05-04 03:00 | 39.44806 | -74.41811 | 18041 ft | 412 kts | 35° |
| 2026-05-04 03:00 | 39.46994 | -74.39420 | 18045 ft | 410 kts | 35° |
| 2026-05-04 03:00 | 39.49194 | -74.37018 | 18049 ft | 413 kts | 35° |
| 2026-05-04 03:01 | 39.51384 | -74.34626 | 18055 ft | 415 kts | 35° |
| 2026-05-04 03:01 | 39.53596 | -74.32204 | 18043 ft | 415 kts | 35° |
| 2026-05-04 03:01 | 39.55780 | -74.29809 | 18037 ft | 415 kts | 35° |
| 2026-05-04 03:01 | 39.57995 | -74.27380 | 18034 ft | 415 kts | 35° |
| 2026-05-04 03:02 | 39.60167 | -74.24991 | 18012 ft | 400 kts | 35° |
| 2026-05-04 03:02 | 39.62250 | -74.22695 | 18012 ft | 384 kts | 35° |
| 2026-05-04 03:02 | 39.64244 | -74.20503 | 17891 ft | 374 kts | 34° |
| 2026-05-04 03:02 | 39.66216 | -74.18336 | 17488 ft | 369 kts | 34° |
| 2026-05-04 03:03 | 39.68173 | -74.16186 | 16911 ft | 367 kts | 35° |
| 2026-05-04 03:03 | 39.70102 | -74.14063 | 16464 ft | 363 kts | 35° |
| 2026-05-04 03:03 | 39.71971 | -74.11994 | 16171 ft | 341 kts | 35° |
| 2026-05-04 03:03 | 39.73737 | -74.10039 | 15701 ft | 327 kts | 35° |
| 2026-05-04 03:04 | 39.75436 | -74.08163 | 15105 ft | 320 kts | 35° |
| 2026-05-04 03:04 | 39.77132 | -74.06294 | 14408 ft | 316 kts | 36° |
| 2026-05-04 03:04 | 39.78800 | -74.04454 | 13726 ft | 313 kts | 36° |
| 2026-05-04 03:04 | 39.80441 | -74.02640 | 13051 ft | 308 kts | 36° |
| 2026-05-04 03:05 | 39.82052 | -74.00854 | 12449 ft | 301 kts | 36° |
| 2026-05-04 03:05 | 39.83631 | -73.99103 | 11831 ft | 293 kts | 36° |
| 2026-05-04 03:05 | 39.85243 | -73.97593 | 11315 ft | 284 kts | 26° |
| 2026-05-04 03:05 | 39.87014 | -73.96347 | 11151 ft | 290 kts | 23° |
| 2026-05-04 03:06 | 39.88800 | -73.95149 | 11048 ft | 287 kts | 23° |
| 2026-05-04 03:06 | 39.90555 | -73.93959 | 11032 ft | 278 kts | 23° |
| 2026-05-04 03:06 | 39.92204 | -73.92820 | 11020 ft | 262 kts | 23° |
| 2026-05-04 03:06 | 39.93773 | -73.91726 | 11020 ft | 249 kts | 23° |
| 2026-05-04 03:07 | 39.95318 | -73.90645 | 11039 ft | 253 kts | 23° |
| 2026-05-04 03:07 | 39.96852 | -73.89565 | 11038 ft | 252 kts | 24° |
| 2026-05-04 03:07 | 39.98389 | -73.88478 | 11068 ft | 248 kts | 23° |
| 2026-05-04 03:07 | 39.99893 | -73.87410 | 11058 ft | 247 kts | 23° |
| 2026-05-04 03:08 | 40.01406 | -73.86336 | 11033 ft | 246 kts | 22° |
| 2026-05-04 03:08 | 40.02910 | -73.85269 | 11027 ft | 245 kts | 22° |
| 2026-05-04 03:08 | 40.04390 | -73.84217 | 11026 ft | 244 kts | 22° |
| 2026-05-04 03:08 | 40.05887 | -73.83154 | 11028 ft | 245 kts | 22° |
| 2026-05-04 03:09 | 40.07378 | -73.82096 | 11031 ft | 246 kts | 22° |
| 2026-05-04 03:09 | 40.08896 | -73.81020 | 11032 ft | 248 kts | 22° |
| 2026-05-04 03:09 | 40.10423 | -73.79938 | 11032 ft | 249 kts | 22° |
| 2026-05-04 03:09 | 40.11932 | -73.78868 | 11025 ft | 250 kts | 22° |
| 2026-05-04 03:10 | 40.13465 | -73.77751 | 11025 ft | 253 kts | 26° |
| 2026-05-04 03:10 | 40.14943 | -73.76492 | 11015 ft | 249 kts | 28° |
| 2026-05-04 03:10 | 40.16341 | -73.75250 | 10879 ft | 243 kts | 28° |
| 2026-05-04 03:10 | 40.17723 | -73.74009 | 10629 ft | 238 kts | 28° |
| 2026-05-04 03:11 | 40.19075 | -73.72786 | 10348 ft | 232 kts | 28° |
| 2026-05-04 03:11 | 40.20382 | -73.71586 | 9988 ft | 229 kts | 28° |
| 2026-05-04 03:11 | 40.21680 | -73.70381 | 9674 ft | 229 kts | 28° |
| 2026-05-04 03:11 | 40.23010 | -73.69150 | 9350 ft | 237 kts | 28° |
| 2026-05-04 03:12 | 40.24357 | -73.67910 | 9007 ft | 239 kts | 28° |
| 2026-05-04 03:12 | 40.25707 | -73.66664 | 8659 ft | 234 kts | 28° |
| 2026-05-04 03:12 | 40.27017 | -73.65452 | 8312 ft | 230 kts | 28° |
| 2026-05-04 03:12 | 40.28319 | -73.64244 | 7976 ft | 227 kts | 28° |
| 2026-05-04 03:13 | 40.29607 | -73.63044 | 7635 ft | 227 kts | 28° |
| 2026-05-04 03:13 | 40.30888 | -73.61855 | 7305 ft | 227 kts | 28° |
| 2026-05-04 03:13 | 40.32178 | -73.60660 | 6997 ft | 227 kts | 28° |
| 2026-05-04 03:13 | 40.33473 | -73.59461 | 6667 ft | 227 kts | 28° |
| 2026-05-04 03:14 | 40.34759 | -73.58276 | 6344 ft | 227 kts | 28° |
| 2026-05-04 03:14 | 40.36073 | -73.57135 | 6002 ft | 225 kts | 24° |
| 2026-05-04 03:14 | 40.37440 | -73.56139 | 5667 ft | 224 kts | 22° |
| 2026-05-04 03:14 | 40.38811 | -73.55162 | 5340 ft | 223 kts | 21° |
| 2026-05-04 03:15 | 40.40176 | -73.54193 | 5009 ft | 222 kts | 21° |
| 2026-05-04 03:15 | 40.41532 | -73.53231 | 4715 ft | 219 kts | 21° |
| 2026-05-04 03:15 | 40.42851 | -73.52296 | 4444 ft | 216 kts | 21° |
| 2026-05-04 03:15 | 40.44210 | -73.51497 | 4173 ft | 209 kts | 4° |
| 2026-05-04 03:16 | 40.45605 | -73.51599 | 3915 ft | 194 kts | 342° |
| 2026-05-04 03:16 | 40.46891 | -73.51944 | 3658 ft | 188 kts | 342° |
| 2026-05-04 03:16 | 40.48161 | -73.52309 | 3398 ft | 184 kts | 341° |
| 2026-05-04 03:16 | 40.49379 | -73.52661 | 3174 ft | 175 kts | 341° |
| 2026-05-04 03:17 | 40.50557 | -73.53004 | 3071 ft | 174 kts | 341° |
| 2026-05-04 03:17 | 40.51741 | -73.53354 | 3034 ft | 177 kts | 341° |
| 2026-05-04 03:17 | 40.52939 | -73.53708 | 2996 ft | 174 kts | 341° |
| 2026-05-04 03:17 | 40.54045 | -73.54245 | 2984 ft | 165 kts | 316° |
| 2026-05-04 03:18 | 40.54722 | -73.55408 | 3002 ft | 161 kts | 302° |
| 2026-05-04 03:18 | 40.55436 | -73.56584 | 3003 ft | 167 kts | 306° |
| 2026-05-04 03:18 | 40.56106 | -73.57793 | 2989 ft | 159 kts | 301° |
| 2026-05-04 03:18 | 40.56659 | -73.58942 | 2994 ft | 138 kts | 299° |
| 2026-05-04 03:19 | 40.57138 | -73.59978 | 2837 ft | 130 kts | 298° |
| 2026-05-04 03:19 | 40.57602 | -73.60996 | 2711 ft | 129 kts | 298° |
| 2026-05-04 03:19 | 40.58054 | -73.61991 | 2526 ft | 128 kts | 297° |
| 2026-05-04 03:19 | 40.58511 | -73.62999 | 2360 ft | 129 kts | 297° |
| 2026-05-04 03:20 | 40.58975 | -73.64021 | 2170 ft | 129 kts | 297° |
| 2026-05-04 03:20 | 40.59435 | -73.65036 | 1988 ft | 129 kts | 297° |
| 2026-05-04 03:20 | 40.59891 | -73.66042 | 1815 ft | 130 kts | 296° |
| 2026-05-04 03:20 | 40.60357 | -73.67069 | 1647 ft | 131 kts | 296° |
| 2026-05-04 03:21 | 40.60823 | -73.68098 | 1464 ft | 131 kts | 296° |
| 2026-05-04 03:21 | 40.61291 | -73.69131 | 1294 ft | 131 kts | 296° |
| 2026-05-04 03:21 | 40.61758 | -73.70162 | 1105 ft | 133 kts | 296° |
| 2026-05-04 03:21 | 40.62239 | -73.71221 | 936 ft | 137 kts | 296° |
| 2026-05-04 03:22 | 40.62565 | -73.71944 | 801 ft | 139 kts | 296° |
| 2026-05-04 03:22 | 40.63058 | -73.73026 | 603 ft | 138 kts | 296° |
| 2026-05-04 03:22 | 40.63554 | -73.74119 | 408 ft | 139 kts | 298° |
| 2026-05-04 03:22 | 40.64051 | -73.75216 | 226 ft | 138 kts | 299° |
| 2026-05-04 03:23 | 40.64486 | -73.76180 | 67 ft | 139 kts | 300° |
| 2026-05-04 03:23 | 40.64724 | -73.76707 | 29 ft | 135 kts | 300° |
| 2026-05-04 03:23 | 40.64863 | -73.77018 | 32 ft | 129 kts | 306° |
| 2026-05-04 03:23 | 40.65023 | -73.77367 | 30 ft | 121 kts | 305° |
| 2026-05-04 03:24 | 40.65140 | -73.77619 | 27 ft | 113 kts | 304° |
| 2026-05-04 03:24 | 40.65339 | -73.78043 | 31 ft | 73 kts | 302° |
| 2026-05-04 03:24 | 40.65435 | -73.78250 | 30 ft | 19 kts | 301° |
| 2026-05-04 03:24 | 40.65527 | -73.78463 | 30 ft | 31 kts | 298° |
| 2026-05-04 03:25 | 40.65593 | -73.78627 | 26 ft | 17 kts | 290° |
| 2026-05-04 03:25 | 40.65565 | -73.78740 | 28 ft | 13 kts | 217° |
| 2026-05-04 03:25 | 40.65533 | -73.78764 | 29 ft | 0 kts | 209° |
| 2026-05-04 03:26 | 40.65518 | -73.78769 | 28 ft | 2 kts | 177° |
| 2026-05-04 03:26 | 40.65493 | -73.78720 | 26 ft | 0 kts | 109° |